CDT,Max TemperatureF,Mean TemperatureF,Min TemperatureF,Max Dew PointF,MeanDew PointF,Min DewpointF,Max Humidity, Mean Humidity, Min Humidity, Max Sea Level PressureIn, Mean Sea Level PressureIn, Min Sea Level PressureIn, Max VisibilityMiles, Mean VisibilityMiles, Min VisibilityMiles, Max Wind SpeedMPH, Mean Wind SpeedMPH, Max Gust SpeedMPH,PrecipitationIn, CloudCover, Events, WindDirDegrees
2013-5-1,47,40,32,40,31,26,100,77,53,30.55,30.33,30.08,10,8,1,23,12,28,0.61,7,Rain-Snow,11
2013-5-2,53,42,31,28,24,19,75,52,28,30.67,30.57,30.49,10,10,10,26,15,36,0.00,1,,9
2013-5-3,53,39,24,26,23,20,88,59,29,30.48,30.30,30.17,10,10,10,24,14,33,0.00,3,,20
2013-5-4,40,38,36,38,35,24,92,73,54,30.22,30.17,30.11,10,8,2,22,12,26,0.06,8,Rain,17
2013-5-5,50,45,39,45,41,37,93,90,86,30.23,30.19,30.13,10,10,9,10,6,13,0.07,8,Rain,345
2013-5-6,62,53,44,47,44,42,93,77,60,30.19,30.13,30.06,10,10,10,7,2,10,0.00,6,,253
2013-5-7,75,55,35,50,43,36,100,67,33,30.09,30.03,29.95,10,7,0,23,6,31,0.02,2,Fog,159
2013-5-8,65,60,55,57,55,51,100,87,73,29.98,29.95,29.92,10,7,2,17,8,21,0.89,8,Rain,107
2013-5-9,64,56,48,54,52,47,93,80,67,30.11,30.01,29.95,10,9,5,24,14,30,0.03,7,Rain,26
2013-5-10,69,54,38,46,40,34,92,65,37,30.15,30.08,29.98,10,10,10,28,8,35,0.00,2,,3
2013-5-11,55,45,34,40,25,15,70,46,22,30.31,30.24,30.11,10,10,10,32,14,39,0.00,0,,341
2013-5-12,63,45,26,32,22,19,84,52,19,30.30,30.22,30.09,10,10,10,9,3,14,0.00,0,,237
2013-5-13,89,70,50,50,40,23,56,40,24,30.09,29.89,29.73,10,10,10,23,10,30,0.00,0,,206
2013-5-14,94,73,52,52,44,32,80,41,8,29.80,29.67,29.57,10,10,10,31,12,37,0.00,0,,307
2013-5-15,80,65,50,50,46,42,74,49,27,29.96,29.88,29.81,10,10,10,16,4,23,T,2,,21
2013-5-16,82,66,49,59,51,42,94,69,16,29.90,29.85,29.80,10,9,2,21,7,31,0.43,4,Rain-Thunderstorm,103
2013-5-17,83,72,60,65,61,58,96,72,36,29.85,29.81,29.75,10,10,7,20,11,25,0.02,3,Rain,152
2013-5-18,81,73,65,64,61,59,84,65,44,29.88,29.79,29.66,10,10,10,23,10,29,0.00,3,,170
2013-5-19,74,68,62,63,61,59,93,79,64,29.73,29.60,29.49,10,9,2,30,7,47,0.35,6,Rain,165
2013-5-20,67,61,55,61,55,51,100,82,63,29.52,29.49,29.45,10,9,2,20,9,28,T,8,Rain-Thunderstorm,231
2013-5-21,61,56,51,55,52,50,100,89,72,29.71,29.58,29.50,10,8,2,18,8,23,0.03,8,Rain,292
2013-5-22,53,50,47,50,48,45,100,89,74,30.04,29.83,29.69,10,8,2,23,12,31,0.11,8,Rain,7
2013-5-23,66,55,44,48,42,33,90,63,20,30.29,30.22,30.06,10,10,10,21,10,29,0.00,0,,56
2013-5-24,66,56,46,53,44,36,72,59,45,30.29,30.18,30.06,10,10,10,24,14,33,0.02,6,Rain-Thunderstorm,141
2013-5-25,74,63,51,58,52,46,100,78,56,30.08,30.04,30.01,10,9,2,26,16,33,1.97,5,Rain-Thunderstorm,122
2013-5-26,58,55,51,56,52,50,100,93,86,30.06,29.99,29.90,10,7,2,35,13,38,1.13,8,Rain-Thunderstorm,102
2013-5-27,67,60,53,59,55,52,100,89,78,29.96,29.83,29.74,10,8,2,32,11,37,1.00,7,Rain,88
2013-5-28,73,65,56,61,57,55,100,83,66,29.76,29.72,29.66,10,7,2,17,5,22,0.06,6,Rain,43
2013-5-29,79,68,57,68,62,55,100,79,58,29.72,29.63,29.48,10,6,0,24,13,32,0.14,6,Fog-Rain-Thunderstorm,126
2013-5-30,75,68,61,64,60,51,93,77,61,29.51,29.47,29.42,10,10,2,26,15,35,0.01,4,Rain-Thunderstorm,175
2013-5-31,69,63,56,53,50,47,86,69,52,29.58,29.51,29.46,10,10,10,21,12,30,T,5,,233